createdAt,value
2023-03-31T00:01:45.974Z,15.90
2023-03-31T00:06:54.333Z,15.90
2023-03-31T00:11:57.696Z,15.80
2023-03-31T00:17:02.302Z,15.80
2023-03-31T00:22:06.681Z,15.90
2023-03-31T00:27:11.370Z,15.90
2023-03-31T00:32:15.352Z,16.00
2023-03-31T00:37:19.814Z,16.00
2023-03-31T00:42:22.925Z,16.00
2023-03-31T00:47:28.040Z,16.00
2023-03-31T00:52:37.657Z,16.10
2023-03-31T00:57:43.134Z,16.10
2023-03-31T01:02:52.544Z,15.80
2023-03-31T01:08:00.355Z,15.30
2023-03-31T01:13:04.791Z,15.00
2023-03-31T01:18:11.453Z,14.90
2023-03-31T01:23:37.320Z,14.80
2023-03-31T01:28:45.854Z,14.70
2023-03-31T01:34:23.324Z,14.70
2023-03-31T01:40:14.369Z,14.60
2023-03-31T01:45:27.446Z,14.60
2023-03-31T01:50:36.824Z,14.60
2023-03-31T01:55:43.465Z,14.60
2023-03-31T02:00:51.879Z,14.50
2023-03-31T02:05:58.367Z,14.50
2023-03-31T02:11:01.630Z,14.50
2023-03-31T02:16:11.702Z,14.60
2023-03-31T02:21:16.452Z,14.40
2023-03-31T02:26:24.437Z,14.40
2023-03-31T02:31:37.431Z,14.40
2023-03-31T02:36:45.411Z,14.50
2023-03-31T02:41:50.686Z,14.40
2023-03-31T02:46:56.729Z,14.50
2023-03-31T02:52:26.106Z,14.60
2023-03-31T02:57:49.934Z,14.60
2023-03-31T03:03:07.961Z,14.60
2023-03-31T03:08:22.469Z,14.50
2023-03-31T03:13:36.723Z,14.50
2023-03-31T03:18:41.277Z,14.60
2023-03-31T03:23:44.239Z,14.50
2023-03-31T03:28:47.101Z,14.50
2023-03-31T03:33:51.923Z,14.50
2023-03-31T03:38:54.800Z,14.50
2023-03-31T03:43:57.731Z,14.50
2023-03-31T03:49:02.173Z,14.60
2023-03-31T03:54:05.235Z,14.60
2023-03-31T03:59:08.182Z,14.60
2023-03-31T04:04:12.407Z,14.70
2023-03-31T04:09:15.528Z,14.70
2023-03-31T04:14:18.455Z,14.80
2023-03-31T04:19:25.815Z,14.90
2023-03-31T04:24:30.789Z,14.90
2023-03-31T04:29:37.143Z,14.80
2023-03-31T04:34:46.426Z,14.60
2023-03-31T04:39:50.560Z,14.60
2023-03-31T04:44:53.466Z,14.70
2023-03-31T04:49:57.664Z,14.50
2023-03-31T04:55:00.712Z,14.60
2023-03-31T05:00:07.270Z,14.40
2023-03-31T05:05:12.234Z,14.40
2023-03-31T05:10:15.426Z,14.40
2023-03-31T05:15:18.581Z,14.40
2023-03-31T05:20:22.951Z,14.40
2023-03-31T05:25:26.136Z,14.40
2023-03-31T05:30:29.737Z,14.30
2023-03-31T05:35:34.062Z,14.30
2023-03-31T05:40:37.040Z,14.30
2023-03-31T05:45:40.087Z,14.30
2023-03-31T05:50:44.367Z,14.30
2023-03-31T05:55:47.234Z,14.30
2023-03-31T06:00:50.150Z,14.40
2023-03-31T06:05:55.775Z,14.20
2023-03-31T06:10:58.784Z,14.00
2023-03-31T06:16:02.681Z,13.90
2023-03-31T06:21:07.990Z,13.50
2023-03-31T06:26:13.992Z,13.60
2023-03-31T06:31:19.017Z,13.70
2023-03-31T06:36:23.816Z,13.60
2023-03-31T06:41:27.341Z,13.60
2023-03-31T06:46:30.366Z,13.60
2023-03-31T06:51:34.776Z,13.50
2023-03-31T06:56:37.799Z,13.50
2023-03-31T07:01:42.482Z,13.50
2023-03-31T07:06:46.909Z,13.60
2023-03-31T07:11:50.213Z,13.70
2023-03-31T07:16:53.227Z,13.70
2023-03-31T07:21:57.582Z,13.60
2023-03-31T07:27:00.490Z,13.80
2023-03-31T07:32:03.428Z,13.90
2023-03-31T07:37:07.864Z,13.90
2023-03-31T07:42:10.814Z,13.80
2023-03-31T07:47:13.765Z,13.90
2023-03-31T07:52:19.726Z,13.90
2023-03-31T07:57:22.716Z,13.90
2023-03-31T08:02:26.159Z,14.00
2023-03-31T08:07:31.253Z,14.20
2023-03-31T08:12:34.221Z,14.20
2023-03-31T08:17:37.202Z,14.40
2023-03-31T08:22:42.302Z,14.30
2023-03-31T08:27:46.694Z,14.30
2023-03-31T08:32:49.578Z,14.40
2023-03-31T08:37:53.871Z,14.40
2023-03-31T08:43:02.221Z,14.50
2023-03-31T08:48:09.104Z,14.60
2023-03-31T08:53:23.936Z,14.70
2023-03-31T08:58:39.401Z,14.80
2023-03-31T09:03:49.498Z,14.80
2023-03-31T09:09:02.757Z,14.70
2023-03-31T09:14:18.831Z,14.80
2023-03-31T09:19:37.557Z,14.80
2023-03-31T09:24:52.003Z,14.90
2023-03-31T09:29:58.796Z,14.80
2023-03-31T09:35:13.082Z,14.90
2023-03-31T09:40:19.615Z,15.10
2023-03-31T09:45:22.573Z,15.20
2023-03-31T09:50:26.538Z,15.20
2023-03-31T09:55:42.900Z,15.20
2023-03-31T10:00:59.421Z,15.30
2023-03-31T10:06:10.286Z,15.30
2023-03-31T10:11:14.909Z,15.30
2023-03-31T10:16:23.820Z,15.20
2023-03-31T10:21:29.477Z,15.10
2023-03-31T10:26:33.878Z,15.10
2023-03-31T10:31:38.735Z,14.80
2023-03-31T10:36:52.412Z,13.50
2023-03-31T10:41:56.641Z,12.50
2023-03-31T10:47:06.908Z,12.50
2023-03-31T10:52:19.783Z,12.80
2023-03-31T10:57:36.821Z,12.90
2023-03-31T11:03:02.643Z,12.90
2023-03-31T11:08:23.705Z,13.00
2023-03-31T11:13:36.652Z,13.20
2023-03-31T11:18:59.420Z,13.10
2023-03-31T11:24:09.890Z,13.10
2023-03-31T11:29:27.869Z,13.20
2023-03-31T11:34:59.753Z,13.30
2023-03-31T11:40:18.612Z,13.30
2023-03-31T11:45:27.231Z,13.40
2023-03-31T11:50:34.424Z,13.50
2023-03-31T11:55:39.413Z,13.50
2023-03-31T12:00:47.997Z,13.70
2023-03-31T12:05:54.616Z,13.80
2023-03-31T12:11:03.596Z,13.70
2023-03-31T12:16:12.957Z,13.70
2023-03-31T12:21:16.446Z,13.50
2023-03-31T12:26:36.149Z,13.50
2023-03-31T12:31:44.092Z,13.60
2023-03-31T12:36:58.962Z,13.60
2023-03-31T12:42:40.764Z,13.40
2023-03-31T12:48:05.536Z,13.20
2023-03-31T12:53:22.591Z,13.40
2023-03-31T12:58:45.891Z,13.40
2023-03-31T13:04:11.137Z,13.10
2023-03-31T13:09:42.963Z,13.00
2023-03-31T13:14:48.427Z,12.90
2023-03-31T13:19:53.478Z,13.00
2023-03-31T13:25:28.241Z,13.10
2023-03-31T13:30:49.333Z,13.30
2023-03-31T13:36:00.311Z,13.40
2023-03-31T13:41:26.404Z,13.60
2023-03-31T13:47:08.432Z,13.60
2023-03-31T13:52:13.280Z,13.70
2023-03-31T13:58:03.202Z,14.00
2023-03-31T14:03:19.015Z,14.30
2023-03-31T14:08:35.603Z,14.50
2023-03-31T14:13:38.463Z,14.50
2023-03-31T14:18:51.322Z,14.50
2023-03-31T14:24:06.011Z,14.60
2023-03-31T14:29:15.257Z,14.70
2023-03-31T14:34:42.327Z,14.80
2023-03-31T14:39:48.349Z,14.70
2023-03-31T14:44:57.112Z,14.60
2023-03-31T14:50:02.625Z,14.50
2023-03-31T14:55:08.074Z,14.50
2023-03-31T15:00:25.444Z,14.40
2023-03-31T15:05:31.036Z,14.20
2023-03-31T15:10:39.832Z,14.20
2023-03-31T15:15:44.270Z,14.10
2023-03-31T15:20:47.781Z,14.10
2023-03-31T15:25:54.838Z,14.10
2023-03-31T15:31:09.642Z,14.10
2023-03-31T15:36:14.045Z,13.70
2023-03-31T15:41:18.820Z,13.10
2023-03-31T15:46:27.383Z,12.90
2023-03-31T15:51:35.361Z,12.90
2023-03-31T15:56:44.735Z,12.60
2023-03-31T16:01:47.979Z,12.60
2023-03-31T16:06:56.460Z,12.60
2023-03-31T16:12:06.010Z,12.60
2023-03-31T16:17:13.200Z,12.70
2023-03-31T16:22:21.928Z,12.60
2023-03-31T16:27:26.267Z,12.60
2023-03-31T16:32:29.245Z,12.70
2023-03-31T16:37:32.515Z,12.80
2023-03-31T16:42:36.754Z,12.70
2023-03-31T16:47:41.580Z,12.70
2023-03-31T16:52:47.223Z,12.80
2023-03-31T16:57:51.487Z,12.80
2023-03-31T17:02:54.807Z,12.90
2023-03-31T17:07:57.923Z,12.90
2023-03-31T17:13:03.317Z,13.00
2023-03-31T17:18:07.181Z,12.90
2023-03-31T17:23:10.343Z,13.00
2023-03-31T17:28:14.595Z,13.00
2023-03-31T17:33:18.476Z,13.00
2023-03-31T17:38:22.545Z,13.00
2023-03-31T17:43:27.469Z,13.10
2023-03-31T17:48:30.666Z,13.10
2023-03-31T17:53:33.553Z,13.00
2023-03-31T17:58:38.146Z,13.00
2023-03-31T18:03:41.386Z,13.00
2023-03-31T18:08:44.325Z,13.10
2023-03-31T18:13:48.854Z,13.10
2023-03-31T18:18:51.962Z,13.10
2023-03-31T18:23:57.095Z,13.20
2023-03-31T18:29:01.351Z,13.10
2023-03-31T18:34:04.264Z,13.10
2023-03-31T18:39:07.208Z,13.10
2023-03-31T18:44:11.437Z,13.20
2023-03-31T18:49:15.332Z,13.20
2023-03-31T18:54:22.658Z,13.20
2023-03-31T18:59:26.916Z,13.20
2023-03-31T19:04:30.171Z,13.20
2023-03-31T19:09:33.075Z,13.20
2023-03-31T19:14:37.629Z,13.20
2023-03-31T19:19:40.996Z,13.20
2023-03-31T19:24:45.031Z,13.20
2023-03-31T19:29:49.470Z,13.20
2023-03-31T19:34:52.760Z,13.20
2023-03-31T19:39:55.715Z,13.00
2023-03-31T19:44:59.949Z,13.00
2023-03-31T19:50:02.991Z,13.00
2023-03-31T19:55:15.490Z,12.90
2023-03-31T20:00:20.993Z,12.90
2023-03-31T20:05:23.910Z,13.00
2023-03-31T20:10:27.207Z,12.90
2023-03-31T20:15:32.543Z,12.90
2023-03-31T20:20:35.523Z,12.90
2023-03-31T20:25:38.616Z,12.90
2023-03-31T20:30:42.882Z,12.90
2023-03-31T20:35:46.954Z,12.90
2023-03-31T20:40:49.879Z,12.80
2023-03-31T20:46:02.963Z,12.80
2023-03-31T20:51:07.567Z,12.70
2023-03-31T20:56:12.087Z,12.70
2023-03-31T21:01:17.697Z,12.70
2023-03-31T21:06:21.116Z,12.70
2023-03-31T21:11:26.518Z,12.70
2023-03-31T21:16:30.784Z,12.60
2023-03-31T21:21:35.255Z,12.60
2023-03-31T21:26:38.162Z,12.50
2023-03-31T21:31:44.796Z,12.50
2023-03-31T21:36:50.029Z,12.50
2023-03-31T21:41:52.908Z,12.60
2023-03-31T21:46:57.222Z,12.50
2023-03-31T21:52:00.116Z,12.40
2023-03-31T21:57:03.106Z,12.50
2023-03-31T22:02:07.452Z,12.40
2023-03-31T22:07:10.591Z,12.40
2023-03-31T22:12:13.930Z,12.40
2023-03-31T22:17:18.171Z,12.30
2023-03-31T22:22:21.640Z,12.30
2023-03-31T22:27:24.523Z,12.30
2023-03-31T22:32:28.788Z,12.20
2023-03-31T22:37:31.726Z,12.30
2023-03-31T22:42:34.743Z,12.20
2023-03-31T22:47:39.092Z,12.10
2023-03-31T22:52:42.019Z,12.20
2023-03-31T22:57:45.924Z,12.30
2023-03-31T23:02:50.144Z,12.20
2023-03-31T23:07:53.018Z,12.30
2023-03-31T23:12:55.893Z,12.20
2023-03-31T23:18:00.202Z,12.20
2023-03-31T23:23:03.679Z,12.20
2023-03-31T23:28:07.432Z,12.20
2023-03-31T23:33:11.600Z,12.30
2023-03-31T23:38:14.462Z,12.30
2023-03-31T23:43:17.465Z,12.30
2023-03-31T23:48:22.136Z,12.20
2023-03-31T23:53:24.982Z,12.30
2023-03-31T23:58:28.328Z,12.40
